DAAJ/DJG METAR and TAF weather

Enter ICAO airport designator
Station Type Date Time Source
DAAJ METAR 2018/07/17 00:00 UTC NOAA

DAAJ 170000Z 03014KT 2000 HZ NSC 30/04 Q1017


Station Type Date Time Source
DAAJ Decoded METAR 2018/07/17 00:00 UTC NOAA

Djanet, Algeria (DAAJ) 24-33N 009-28E 1054M
Jul 16, 2018 - 08:00 PM EDT / 2018.07.17 0000 UTC
Wind: from the NNE (030 degrees) at 16 MPH (14 KT):0
Visibility: 1 mile(s):0
Weather: haze
Temperature: 86 F (30 C)
Dew Point: 39 F (4 C)
Relative Humidity: 19%
Pressure (altimeter): 30.03 in. Hg (1017 hPa)
ob: DAAJ 170000Z 03014KT 2000 HZ NSC 30/04 Q1017
cycle: 0

Station Type Date Time Source
DAAJ TAF 2018/07/16 21:16 UTC NOAA

TAF
AMD DAAJ 162113Z 1621/1718 04014KT 2000 HZ NSC
BECMG 1622/1701 6000 NSW


Example: see airport list